Henderson, NV (89009)

12:03 AM PDT en Octubre 21, 2014 (GMT -0700)
River Mountain Ridge | Change Station
CLOSE
Current Station
Estación meteorológica personal
Location: Henderson, NV
Altura: 1942 ft
Estaciones meteorológicas cercanas

Alt 1942 ft 36.04 °N, 114.95 °W | Updated 4 minutes ago

Parcialmente nublado
Parcialmente nublado
74.8 ° F
Sensación térmica 77 ° F
N
0.0
Viento Variable Viento desde Oeste
Gusts 1.0 mph

Hoy
Alta -- | Baja -- ° F
--% Posibilidad de precipitaciones
Ayer
Alta -- | Baja -- ° F
Precip. -- pul
6:52 AM 5:56 PM
Creciente menguante, 7% visible
Presión 29.87 pul
Visibilidad 10.0 Millas
Nubes Despejado
Índice de calor 77 ° F
Punto de rocío 48 ° F
Humedad 38%
Precipitaciones 0.00 pul
Espesor de la nieve No disponible.
UV 0 de una escala de 12
Polen 4.90 de una escala de 12
Ozono Buena
PM2.5 Buena
Flu Activity No Activity
METAR KBVU 210655Z AUTO 00000KT 10SM CLR 22/09 A2987 RMK AO2

More Conditions Fewer Conditions

Presión 29.87 pul
Visibilidad 10.0 Millas
Nubes Despejado
Índice de calor 77 ° F
Punto de rocío 48 ° F
Humedad 38%
Precipitaciones 0.00 pul
Espesor de la nieve No disponible.
UV 0 de una escala de 12
Polen 4.90 de una escala de 12
Ozono Buena
PM2.5 Buena
Flu Activity No Activity
METAR KBVU 210655Z AUTO 00000KT 10SM CLR 22/09 A2987 RMK AO2

More Conditions Fewer Conditions

10-Day Weather Forecast

Almanac

Astronomía

Oct. 21, 2014 Salida Puesta
Hora real 6:52 AM PDT 5:56 PM PDT
Crepúsculo civil 6:26 AM PDT 6:22 PM PDT
Crepúsculo náutico 5:56 AM PDT 6:52 PM PDT
Crepúsculo astronómico 5:26 AM PDT 7:21 PM PDT
Luna 4:44 AM PDT 4:49 PM PDT
Horas de luz 11h 56m
Horas de luz
11h 04m
Tomorrow will be 2m 8s shorter.
Creciente menguante, 7% of the Moon is Illuminated
Hoy
Creciente menguante
Oct 23
Nueva
Oct 30
Cuarto creciente
Nov 6
Luna llena
Nov 14
Cuarto menguante

Community

WunderPhotos

Upload Photos

1,763,619 ¡fotos cargadas!

Nearby

Calidad del aire

  Calidad del aire Índice AQ Contaminante
Ayer Buena
OZONE
Ayer Buena
PM10
Real Buena
OZONE
Real Buena
PM2.5
Lunes Buena
PM10
Lunes Buena
OZONE
Martes Buena
PM10
Martes Buena
OZONE
Miércoles Buena
PM10
Miércoles Buena
OZONE
Jueves Buena
PM10
Jueves Buena
OZONE
Viernes Buena
PM10
Viernes Buena
OZONE
Sábado Buena
PM10
Sábado Buena
OZONE

Grosos de nieve

Estación Profundido Altura
Ward Mountain 0 in 9200 ft
Diamond Peak 1 in 8000 ft
Big Creek Summit 1 in 8700 ft
Corral Canyon 0 in 8500 ft
Green Mountain 0 in 8000 ft

Actividad de terremotos

Ciudad Distance Mag. Tiempo y dato
No hay informes recientes de la actividad sísmica.
Magnitud mínima muestra es 2,5.

Temperaturas de aguas costeras

Lugar Temperatura
Sin partes meteorológicos de las estaciones

Estaciones meteorológicas cercanas